WetterOnline ( http://www.wetteronline.de )

Wetter aktuell PLZ Bereich 36404

Aktuelles Wetter: Bad Hersfeld (273m)

6-stündlich | Neueste Meldungen
Ortszeit Temperatur Wetter
Mo, 23.04. 14:00 20.6° C wolkig
Mo, 23.04. 8:00 13.8° C bedeckt
Mo, 23.04. 2:00 13.8° C bewölkt
So, 22.04. 20:00 20.8° C wolkig
So, 22.04. 14:00 26.0° C leicht bewölkt
So, 22.04. 8:00 10.4° C leicht bewölkt
So, 22.04. 2:00 12.3° C wolkig
Sa, 21.04. 20:00 20.5° C wolkenlos
Ortszeit Temperatur Wetter
Mo, 23.04. 15:30 21.7° C wolkig
Mo, 23.04. 15:10 21.8° C wolkig
Mo, 23.04. 15:00 21.0° C wolkig
Mo, 23.04. 14:50 21.0° C wolkig
Mo, 23.04. 14:40 21.3° C bewölkt
Mo, 23.04. 14:30 21.5° C wolkig
Mo, 23.04. 14:00 20.6° C wolkig
Mo, 23.04. 13:30 19.7° C bewölkt
Mo, 23.04. 13:00 20.7° C wolkig
Mo, 23.04. 12:30 20.6° C wolkig
Ortszeit Relative Feuchte Sichtweite
Mo, 23.04. 14:00 55% 15 km
Mo, 23.04. 8:00 91% 10 km
Mo, 23.04. 2:00 91% 12 km
So, 22.04. 20:00 52% 21 km
So, 22.04. 14:00 40% 16 km
So, 22.04. 8:00 90% 4.6 km
So, 22.04. 2:00 87% 7 km
Sa, 21.04. 20:00 54% 11 km
Ortszeit Relative Feuchte Sichtweite
Mo, 23.04. 15:30 48% 17 km
Mo, 23.04. 15:10 47% -
Mo, 23.04. 15:00 50% 17 km
Mo, 23.04. 14:50 50% -
Mo, 23.04. 14:40 50% -
Mo, 23.04. 14:30 50% 18 km
Mo, 23.04. 14:00 55% 15 km
Mo, 23.04. 13:30 55% 16 km
Mo, 23.04. 13:00 55% 18 km
Mo, 23.04. 12:30 57% 17 km
Ortszeit Niederschlagsmenge Niederschlagsart
Mo, 23.04. 14:00 0.1 l/m2 in 6 Std. Regen
Mo, 23.04. 8:00 0.4 l/m2 in 12 Std. Regen
Mo, 23.04. 2:00 0.1 l/m2 in 6 Std. Regen
So, 22.04. 20:00 0.1 l/m2 in 12 Std. Regen
So, 22.04. 14:00 0.0 l/m2 in 6 Std. -
So, 22.04. 8:00 0.0 l/m2 in 12 Std. -
So, 22.04. 2:00 0.0 l/m2 in 6 Std. -
Sa, 21.04. 20:00 0.0 l/m2 in 12 Std. -
Ortszeit Niederschlagsmenge Niederschlagsart
Mo, 23.04. 15:30 0.0 l/m2 in 1 Std. -
Mo, 23.04. 15:10 keine Meldung -
Mo, 23.04. 15:00 0.1 l/m2 in 1 Std. Regen
Mo, 23.04. 14:50 keine Meldung -
Mo, 23.04. 14:40 keine Meldung -
Mo, 23.04. 14:30 0.0 l/m2 in 1 Std. -
Mo, 23.04. 14:00 0.0 l/m2 in 1 Std. Regen
Mo, 23.04. 13:30 0.0 l/m2 in 1 Std. -
Mo, 23.04. 13:00 0.0 l/m2 in 1 Std. -
Mo, 23.04. 12:30 0.0 l/m2 in 1 Std. -
Ortszeit Stärke Spitze Richtung
km/h Bft. km/h Grad Sektor
Mo, 23.04. 14:00 17 3 35 240° SW
Mo, 23.04. 8:00 4 1 18 340° N
Mo, 23.04. 2:00 0 0 14 - -
So, 22.04. 20:00 7 2 29 140° SO
So, 22.04. 14:00 14 3 29 220° SW
So, 22.04. 8:00 4 1 4 360° N
So, 22.04. 2:00 4 1 14 60° NO
Sa, 21.04. 20:00 11 2 22 20° N
Ortszeit Stärke Spitze Richtung
km/h Bft. km/h Grad Sektor
Mo, 23.04. 15:30 22 4 36 280° W
Mo, 23.04. 15:10 19 3 - 240° SW
Mo, 23.04. 15:00 22 4 39 250° W
Mo, 23.04. 14:50 22 4 - 250° W
Mo, 23.04. 14:40 22 4 - 270° W
Mo, 23.04. 14:30 26 4 39 240° SW
Mo, 23.04. 14:00 17 3 33 240° SW
Mo, 23.04. 13:30 18 3 32 250° W
Mo, 23.04. 13:00 20 4 35 240° SW
Mo, 23.04. 12:30 17 3 30 220° SW
Ortszeit Untergrenze Bedeckung Gattung
total tief tief mittel hoch
Mo, 23.04. 14:00 1170 m 7/8 5/8 - - -
Mo, 23.04. 8:00 2400 m 8/8 8/8 - - -
Mo, 23.04. 2:00 3300 m 8/8 7/8 - - -
So, 22.04. 20:00 7500 m 8/8 0/8 - - -
So, 22.04. 14:00 8400 m 7/8 0/8 - - -
So, 22.04. 8:00 30 m 3/8 3/8 - - -
So, 22.04. 2:00 9000 m 8/8 0/8 - - -
Sa, 21.04. 20:00 - 0/8 0/8 - - -
Ortszeit Bedeckungsgrad in Achtel und Wolkenuntergrenze
Mo, 23.04. 15:30 2(1410m) 4(2400m) 6(9000m)
Mo, 23.04. 15:10 1(1380m) 3(2700m) 7(9000m)
Mo, 23.04. 15:00 2(1290m) 5(2700m) 7(9000m)
Mo, 23.04. 14:50 2(1290m) 5(2700m) 7(9000m)
Mo, 23.04. 14:40 3(1320m) 6(1500m) 7(9000m)
Mo, 23.04. 14:30 3(1380m) 5(2700m) 6(9000m)
Mo, 23.04. 14:00 1(1170m) 5(2400m) 7(6900m)
Mo, 23.04. 13:30 7(1140m) 7(1440m) 7(1500m)
Mo, 23.04. 13:00 3(1140m) 4(1350m) 6(1500m)
Mo, 23.04. 12:30 2(1290m) 7(5100m) 7(7500m)
Ortszeit Luftdruck NN (hPa) Tendenz (hPa in 3 Std.)
Mo, 23.04. 14:00 1014 - 0,1
Mo, 23.04. 8:00 1014 + 0,7
Mo, 23.04. 2:00 1013 0,0
So, 22.04. 20:00 1011 - 0,7
So, 22.04. 14:00 1013 - 2,0
So, 22.04. 8:00 1017 - 0,7
So, 22.04. 2:00 1019 - 0,4
Sa, 21.04. 20:00 1018 - 0,5
Ortszeit Luftdruck NN (hPa) Tendenz (hPa in 3 Std.)
Mo, 23.04. 15:30 1013 - 0,6
Mo, 23.04. 15:10 1013 keine Meldung
Mo, 23.04. 15:00 1013 - 0,2
Mo, 23.04. 14:50 1013 keine Meldung
Mo, 23.04. 14:40 1014 keine Meldung
Mo, 23.04. 14:30 1013 - 0,4
Mo, 23.04. 14:00 1014 - 0,1
Mo, 23.04. 13:30 1014 0,0
Mo, 23.04. 13:00 1014 + 0,1
Mo, 23.04. 12:30 1014 + 0,4
Ortszeit Schneehöhe (cm)
Mo, 23.04. 14:00 -
Mo, 23.04. 8:00 -
Mo, 23.04. 2:00 -
So, 22.04. 20:00 -
So, 22.04. 14:00 -
So, 22.04. 8:00 -
So, 22.04. 2:00 -
Sa, 21.04. 20:00 -
Ortszeit Schneehöhe (cm)
Mo, 23.04. 15:30 -
Mo, 23.04. 15:10 -
Mo, 23.04. 15:00 -
Mo, 23.04. 14:50 -
Mo, 23.04. 14:40 -
Mo, 23.04. 14:30 -
Mo, 23.04. 14:00 -
Mo, 23.04. 13:30 -
Mo, 23.04. 13:00 -
Mo, 23.04. 12:30 -
Link zu dieser Seite / Seite empfehlen

Das Wetter in ...